Time;durP1;ratioP1;P1;durP2;ratioP2;P2;SDS_P1;SDS_P2;PMS_P1;PMS_P2;Temp;Humidity;BMP_temperature;BMP_pressure;BME280_temperature;BME280_humidity;BME280_pressure;Samples;Min_cycle;Max_cycle;Signal;HPM_P1;HPM_P2
2024/03/23 00:01:29;;;;;;;43.13;14.82;;;7.30;99.90;;;;;;4952777;28;20061;-72
2024/03/23 00:03:58;;;;;;;44.08;14.95;;;7.30;99.90;;;;;;4955836;28;20043;-73
2024/03/23 00:06:24;;;;;;;39.35;14.70;;;7.30;99.90;;;;;;4954927;28;20042;-73
2024/03/23 00:08:50;;;;;;;33.85;14.30;;;7.30;99.90;;;;;;4954133;28;20050;-70
2024/03/23 00:11:16;;;;;;;33.05;14.88;;;7.20;99.90;;;;;;4968376;28;20120;-74
2024/03/23 00:13:42;;;;;;;52.50;14.50;;;7.10;99.90;;;;;;4955004;28;20042;-73
2024/03/23 00:16:08;;;;;;;35.67;13.35;;;7.10;99.90;;;;;;4972617;28;20038;-71
2024/03/23 00:18:35;;;;;;;43.50;15.85;;;7.10;99.90;;;;;;4938470;28;20719;-72
2024/03/23 00:21:02;;;;;;;41.70;14.10;;;7.10;99.90;;;;;;4950667;28;20054;-71
2024/03/23 00:23:28;;;;;;;38.13;15.88;;;7.00;99.90;;;;;;4949310;28;20045;-73
2024/03/23 00:25:54;;;;;;;49.08;16.85;;;7.10;99.90;;;;;;4921733;28;20050;-73
2024/03/23 00:28:20;;;;;;;44.03;16.70;;;7.10;99.90;;;;;;4932891;28;20039;-71
2024/03/23 00:30:46;;;;;;;36.70;13.45;;;7.10;99.90;;;;;;4934406;28;20050;-72
2024/03/23 00:33:13;;;;;;;34.25;13.52;;;7.00;99.90;;;;;;4932684;28;20043;-73
2024/03/23 00:35:40;;;;;;;25.38;10.88;;;6.80;99.90;;;;;;4931644;28;20082;-73
2024/03/23 00:38:06;;;;;;;25.13;10.30;;;6.60;99.90;;;;;;4934038;28;20098;-72
2024/03/23 00:40:32;;;;;;;23.58;10.55;;;6.60;99.90;;;;;;4933661;28;20055;-73
2024/03/23 00:42:58;;;;;;;31.27;11.45;;;6.60;99.90;;;;;;4921313;28;20062;-72
2024/03/23 00:45:24;;;;;;;22.83;10.00;;;6.50;99.90;;;;;;4933455;28;20039;-73
2024/03/23 00:47:50;;;;;;;26.38;9.57;;;6.50;99.90;;;;;;4942165;28;20642;-71
2024/03/23 00:50:17;;;;;;;23.17;10.32;;;6.50;99.90;;;;;;4954541;28;20058;-73
2024/03/23 00:52:45;;;;;;;31.38;10.60;;;6.50;99.90;;;;;;4928526;28;20476;-73
2024/03/23 00:55:11;;;;;;;24.80;10.30;;;6.50;99.90;;;;;;4930868;28;20050;-73
2024/03/23 00:57:38;;;;;;;25.88;10.32;;;6.50;99.90;;;;;;4949363;28;20447;-73
2024/03/23 01:00:06;;;;;;;21.15;8.52;;;6.40;99.90;;;;;;4931070;28;20038;-71
2024/03/23 01:02:33;;;;;;;17.45;7.95;;;6.40;99.90;;;;;;4966207;28;20140;-73
2024/03/23 01:04:59;;;;;;;22.02;8.73;;;6.30;99.90;;;;;;4967050;28;20046;-73
2024/03/23 01:07:25;;;;;;;20.75;7.03;;;6.20;99.90;;;;;;4940781;28;20081;-72
2024/03/23 01:09:53;;;;;;;19.45;7.68;;;6.20;99.90;;;;;;4992557;28;20042;-73
2024/03/23 01:12:19;;;;;;;19.25;7.63;;;6.20;99.90;;;;;;4954647;28;20116;-73
2024/03/23 01:14:45;;;;;;;20.70;7.65;;;6.20;99.90;;;;;;4949618;28;20058;-73
2024/03/23 01:17:11;;;;;;;23.52;9.52;;;6.20;99.90;;;;;;4957977;28;20046;-74
2024/03/23 01:19:39;;;;;;;16.90;8.02;;;6.20;99.90;;;;;;4956318;28;20046;-73
2024/03/23 01:22:05;;;;;;;20.02;6.90;;;6.20;99.90;;;;;;4953854;28;20048;-73
2024/03/23 01:24:31;;;;;;;20.20;7.40;;;6.30;99.90;;;;;;4953432;28;20039;-73
2024/03/23 01:26:58;;;;;;;19.05;8.50;;;6.30;99.90;;;;;;4971686;28;20129;-72
2024/03/23 01:29:24;;;;;;;25.60;9.68;;;6.20;99.90;;;;;;4950258;28;20049;-70
2024/03/23 01:31:51;;;;;;;20.58;8.80;;;6.30;99.90;;;;;;4939029;28;20237;-73
2024/03/23 01:34:17;;;;;;;19.90;9.55;;;6.40;99.90;;;;;;4953878;28;20107;-74
2024/03/23 01:36:44;;;;;;;25.65;9.88;;;6.40;99.90;;;;;;4936744;28;20463;-73
2024/03/23 01:39:09;;;;;;;20.48;9.57;;;6.40;99.90;;;;;;4958350;28;20073;-71
2024/03/23 01:41:38;;;;;;;25.33;10.15;;;6.40;99.90;;;;;;4953250;28;20096;-74
2024/03/23 01:44:07;;;;;;;29.98;8.82;;;6.30;99.90;;;;;;4956948;28;20139;-72
2024/03/23 01:46:35;;;;;;;32.03;10.57;;;6.30;99.90;;;;;;4932673;28;20385;-72
2024/03/23 01:49:01;;;;;;;25.25;9.13;;;6.30;99.90;;;;;;4939227;28;20053;-72
2024/03/23 01:51:28;;;;;;;31.70;10.90;;;6.30;99.90;;;;;;4953614;28;20045;-72
2024/03/23 01:53:56;;;;;;;22.42;8.38;;;6.30;99.90;;;;;;4953755;28;20088;-72
2024/03/23 01:56:22;;;;;;;25.50;9.63;;;6.20;99.90;;;;;;4940289;28;20073;-73
2024/03/23 01:58:48;;;;;;;27.50;9.15;;;6.20;99.90;;;;;;4950203;28;20549;-73
2024/03/23 02:01:14;;;;;;;22.38;8.85;;;6.20;99.90;;;;;;4939057;28;20038;-71
2024/03/23 02:03:41;;;;;;;20.08;8.65;;;6.20;99.90;;;;;;4968603;28;20118;-72
2024/03/23 02:06:08;;;;;;;24.85;7.63;;;6.10;99.90;;;;;;4939615;28;20064;-73
2024/03/23 02:08:34;;;;;;;20.52;7.45;;;6.10;99.90;;;;;;4951467;28;20046;-74
2024/03/23 02:11:02;;;;;;;21.27;8.75;;;6.10;99.90;;;;;;4955935;28;20046;-73
2024/03/23 02:13:28;;;;;;;18.35;7.70;;;6.10;99.90;;;;;;4953021;28;20653;-71
2024/03/23 02:15:54;;;;;;;20.80;8.40;;;6.10;99.90;;;;;;4969862;28;20430;-71
2024/03/23 02:18:20;;;;;;;26.83;7.50;;;6.10;99.90;;;;;;4970688;28;20673;-73
2024/03/23 02:20:46;;;;;;;26.70;8.48;;;6.00;99.90;;;;;;4953221;28;20058;-74
2024/03/23 02:23:16;;;;;;;31.95;8.32;;;6.10;99.90;;;;;;4938505;28;20507;-73
2024/03/23 02:25:44;;;;;;;25.70;8.55;;;5.90;99.90;;;;;;4967403;28;20542;-72
2024/03/23 02:28:11;;;;;;;27.80;9.20;;;5.90;99.90;;;;;;4957121;28;20158;-73
2024/03/23 02:30:37;;;;;;;21.33;8.95;;;5.80;99.90;;;;;;4969205;28;20661;-73
2024/03/23 02:33:04;;;;;;;34.83;10.70;;;5.90;99.90;;;;;;4955595;28;20058;-72
2024/03/23 02:35:30;;;;;;;30.08;10.30;;;5.80;99.90;;;;;;4929254;28;20117;-70
2024/03/23 02:37:57;;;;;;;34.30;10.48;;;5.80;99.90;;;;;;4919752;28;20126;-72
2024/03/23 02:40:24;;;;;;;31.42;10.27;;;5.80;99.90;;;;;;4925281;28;20055;-72
2024/03/23 02:42:50;;;;;;;38.00;10.88;;;5.90;99.90;;;;;;4955187;28;20423;-74
2024/03/23 02:45:17;;;;;;;34.08;10.50;;;5.90;99.90;;;;;;4957176;28;20054;-73
2024/03/23 02:47:43;;;;;;;32.47;10.60;;;5.90;99.90;;;;;;4969481;28;20053;-71
2024/03/23 02:50:09;;;;;;;28.38;10.32;;;5.90;99.90;;;;;;4970100;28;20116;-73
2024/03/23 02:52:36;;;;;;;28.23;10.93;;;5.90;99.90;;;;;;4956051;28;20035;-74
2024/03/23 02:55:03;;;;;;;33.47;10.77;;;5.70;99.90;;;;;;4963182;28;20053;-73
2024/03/23 02:57:29;;;;;;;30.15;10.80;;;5.60;99.90;;;;;;4974922;28;20046;-74
2024/03/23 02:59:55;;;;;;;31.25;10.27;;;5.70;99.90;;;;;;4938144;28;20069;-72
2024/03/23 03:02:22;;;;;;;38.03;11.27;;;5.70;99.90;;;;;;4973488;28;20050;-73
2024/03/23 03:04:48;;;;;;;26.27;9.02;;;5.70;99.90;;;;;;4958705;28;20732;-72
2024/03/23 03:07:14;;;;;;;22.02;7.45;;;5.60;99.90;;;;;;4937174;28;20051;-73
2024/03/23 03:09:40;;;;;;;20.00;7.63;;;5.50;99.90;;;;;;4967768;28;20051;-72
2024/03/23 03:12:07;;;;;;;20.92;7.30;;;5.50;99.90;;;;;;4958546;28;20050;-73
2024/03/23 03:14:34;;;;;;;19.20;5.93;;;5.40;99.90;;;;;;4964195;28;20047;-73
2024/03/23 03:17:00;;;;;;;13.32;6.30;;;5.40;99.90;;;;;;4962249;28;20033;-72
2024/03/23 03:19:27;;;;;;;21.83;7.72;;;5.40;99.90;;;;;;4994039;28;20308;-72
2024/03/23 03:21:53;;;;;;;25.17;8.55;;;5.40;99.90;;;;;;4967559;28;20627;-73
2024/03/23 03:24:20;;;;;;;20.98;7.90;;;5.40;99.90;;;;;;4955239;28;20050;-72
2024/03/23 03:26:46;;;;;;;21.45;8.07;;;5.40;99.90;;;;;;4943190;28;20098;-73
2024/03/23 03:29:12;;;;;;;19.98;8.15;;;5.30;99.90;;;;;;4958899;28;20058;-73
2024/03/23 03:31:39;;;;;;;27.65;7.32;;;5.30;99.90;;;;;;4953534;28;20443;-72
2024/03/23 03:34:05;;;;;;;19.42;8.52;;;5.20;99.90;;;;;;4972370;28;20050;-72
2024/03/23 03:36:31;;;;;;;10.25;5.93;;;5.10;99.90;;;;;;4940657;28;20267;-72
2024/03/23 03:38:57;;;;;;;18.33;5.75;;;5.00;99.90;;;;;;4970235;28;20097;-72
2024/03/23 03:41:24;;;;;;;15.20;5.93;;;5.00;99.90;;;;;;4945716;28;20047;-72
2024/03/23 03:43:50;;;;;;;16.33;6.07;;;5.00;99.90;;;;;;4952443;28;20046;-73
2024/03/23 03:46:16;;;;;;;11.95;5.70;;;4.90;99.90;;;;;;4956617;28;20054;-74
2024/03/23 03:48:44;;;;;;;8.20;5.03;;;4.90;99.90;;;;;;4954736;28;20064;-72
2024/03/23 03:51:10;;;;;;;11.25;4.82;;;4.90;99.90;;;;;;4970880;28;20148;-74
2024/03/23 03:53:37;;;;;;;13.93;6.03;;;4.90;99.90;;;;;;4969422;28;20101;-70
2024/03/23 03:56:06;;;;;;;7.78;5.40;;;4.90;99.90;;;;;;4983288;28;20042;-73
2024/03/23 03:58:32;;;;;;;14.05;5.68;;;5.00;99.90;;;;;;4944363;28;20648;-72
2024/03/23 04:00:58;;;;;;;14.15;5.30;;;4.90;99.90;;;;;;4967507;28;20062;-73
2024/03/23 04:03:25;;;;;;;16.15;5.70;;;5.00;99.90;;;;;;4957937;28;20124;-72
2024/03/23 04:05:54;;;;;;;15.93;6.32;;;5.10;99.90;;;;;;4964684;28;20096;-71
2024/03/23 04:08:21;;;;;;;15.13;6.00;;;5.10;99.90;;;;;;4961438;28;20049;-72
2024/03/23 04:10:47;;;;;;;14.93;5.90;;;5.20;99.90;;;;;;4932756;28;20061;-73
2024/03/23 04:13:14;;;;;;;16.17;6.47;;;5.20;99.90;;;;;;4955341;28;20046;-73
2024/03/23 04:15:40;;;;;;;16.98;5.47;;;5.20;99.90;;;;;;4955189;28;20084;-72
2024/03/23 04:18:06;;;;;;;15.48;6.20;;;5.20;99.90;;;;;;4954557;28;20101;-73
2024/03/23 04:20:33;;;;;;;19.77;6.43;;;5.20;99.90;;;;;;4932024;28;20039;-73
2024/03/23 04:22:59;;;;;;;13.32;6.03;;;5.20;99.90;;;;;;4930770;28;20058;-73
2024/03/23 04:25:25;;;;;;;15.55;7.32;;;5.20;99.90;;;;;;4940127;28;20113;-73
2024/03/23 04:27:51;;;;;;;18.17;7.57;;;5.20;99.90;;;;;;4950446;28;20061;-73
2024/03/23 04:30:19;;;;;;;14.50;6.10;;;5.20;99.90;;;;;;4949564;28;20104;-72
2024/03/23 04:32:45;;;;;;;16.20;6.65;;;5.00;99.90;;;;;;4964052;28;20050;-74
2024/03/23 04:35:11;;;;;;;17.17;6.05;;;5.00;99.90;;;;;;4969538;28;20053;-74
2024/03/23 04:37:37;;;;;;;24.90;8.70;;;5.00;99.90;;;;;;4956575;28;20046;-73
2024/03/23 04:40:04;;;;;;;22.92;7.00;;;4.90;99.90;;;;;;4952545;28;20205;-73
2024/03/23 04:42:31;;;;;;;22.42;7.03;;;4.90;99.90;;;;;;4965322;28;20452;-72
2024/03/23 04:44:58;;;;;;;21.38;7.20;;;4.90;99.90;;;;;;4946799;28;20066;-71
2024/03/23 04:47:24;;;;;;;18.73;7.10;;;4.80;99.90;;;;;;4968209;28;20092;-73
2024/03/23 04:49:52;;;;;;;21.73;6.78;;;4.70;99.90;;;;;;4953935;28;20057;-73
2024/03/23 04:52:18;;;;;;;24.98;8.10;;;4.70;99.90;;;;;;4967106;28;20146;-73
2024/03/23 04:54:45;;;;;;;17.90;5.93;;;4.70;99.90;;;;;;4948973;28;20051;-73
2024/03/23 04:57:11;;;;;;;22.50;6.53;;;4.70;99.90;;;;;;4969792;28;20088;-73
2024/03/23 04:59:37;;;;;;;15.85;4.60;;;4.60;99.90;;;;;;4970387;28;20599;-72
2024/03/23 05:02:04;;;;;;;19.48;5.13;;;4.60;99.90;;;;;;4967372;28;20222;-72
2024/03/23 05:04:32;;;;;;;12.50;4.80;;;4.50;99.90;;;;;;4965399;28;20057;-74
2024/03/23 05:06:58;;;;;;;12.98;4.20;;;4.40;99.90;;;;;;4961470;28;20046;-72
2024/03/23 05:09:24;;;;;;;15.73;4.32;;;4.40;99.90;;;;;;4955159;28;20042;-73
2024/03/23 05:11:50;;;;;;;8.25;3.50;;;4.40;99.90;;;;;;4950399;28;20506;-72
2024/03/23 05:14:16;;;;;;;6.15;2.90;;;4.30;99.90;;;;;;4951198;28;20047;-74
2024/03/23 05:16:42;;;;;;;8.60;3.38;;;4.30;99.90;;;;;;4952625;28;20054;-72
2024/03/23 05:19:09;;;;;;;12.15;3.97;;;4.20;99.90;;;;;;4949757;28;20117;-73
2024/03/23 05:21:35;;;;;;;9.43;4.13;;;4.10;99.90;;;;;;4951266;28;20065;-73
2024/03/23 05:24:02;;;;;;;16.75;5.18;;;4.10;99.90;;;;;;4950245;28;20147;-74
2024/03/23 05:26:29;;;;;;;12.30;4.40;;;4.20;99.90;;;;;;4970455;28;20042;-73
2024/03/23 05:28:55;;;;;;;14.82;5.45;;;4.20;99.90;;;;;;4963155;28;20519;-73
2024/03/23 05:31:29;;;;;;;13.07;4.47;;;4.20;99.90;;;;;;4951213;28;20081;-73
2024/03/23 05:33:55;;;;;;;18.67;4.97;;;4.10;99.90;;;;;;4942349;28;20042;-73
2024/03/23 05:36:21;;;;;;;11.90;4.40;;;4.10;99.90;;;;;;4952665;28;20050;-73
2024/03/23 05:38:48;;;;;;;15.23;4.78;;;4.20;99.90;;;;;;4949852;28;20058;-74
2024/03/23 05:41:14;;;;;;;19.15;5.32;;;4.30;99.90;;;;;;4955290;28;20696;-73
2024/03/23 05:43:40;;;;;;;14.95;5.68;;;4.20;99.90;;;;;;4933767;28;20065;-73
2024/03/23 05:46:07;;;;;;;23.95;5.03;;;4.30;99.90;;;;;;4950093;28;20702;-74
2024/03/23 05:48:33;;;;;;;21.95;5.55;;;4.30;99.90;;;;;;4953591;28;20046;-73
2024/03/23 05:51:01;;;;;;;21.83;4.60;;;4.20;99.90;;;;;;4952781;28;20049;-73
2024/03/23 05:53:30;;;;;;;13.65;4.28;;;4.30;99.90;;;;;;4956285;28;20054;-72
2024/03/23 05:56:03;;;;;;;14.52;5.00;;;4.30;99.90;;;;;;4943451;28;20050;-74
2024/03/23 05:58:31;;;;;;;18.63;5.97;;;4.40;99.90;;;;;;4972328;28;20430;-72
2024/03/23 06:01:02;;;;;;;15.65;5.40;;;4.50;99.90;;;;;;4935985;28;20042;-74
2024/03/23 06:03:29;;;;;;;18.83;6.55;;;4.60;99.90;;;;;;4974393;28;20050;-74
2024/03/23 06:05:55;;;;;;;16.42;5.82;;;4.60;99.90;;;;;;4967965;28;20238;-73
2024/03/23 06:08:22;;;;;;;15.45;4.85;;;4.60;99.90;;;;;;4958377;28;20147;-72
2024/03/23 06:10:50;;;;;;;16.63;6.68;;;4.50;99.90;;;;;;4969315;28;20100;-70
2024/03/23 06:13:16;;;;;;;13.55;6.00;;;4.60;99.90;;;;;;4957455;28;20042;-72
2024/03/23 06:15:43;;;;;;;21.33;5.30;;;4.60;99.90;;;;;;4971217;28;20070;-73
2024/03/23 06:18:09;;;;;;;16.33;5.13;;;4.70;99.90;;;;;;4954721;28;21209;-70
2024/03/23 06:20:35;;;;;;;17.77;5.40;;;4.60;99.90;;;;;;4957665;28;20043;-73
2024/03/23 06:23:03;;;;;;;16.67;5.53;;;4.70;99.90;;;;;;4940414;28;20046;-71
2024/03/23 06:25:29;;;;;;;18.30;6.63;;;4.60;99.90;;;;;;4942554;28;20042;-74
2024/03/23 06:27:56;;;;;;;16.60;5.95;;;4.70;99.90;;;;;;4953503;28;20143;-71
2024/03/23 06:30:22;;;;;;;17.83;6.38;;;4.60;99.90;;;;;;4954134;28;20086;-72
2024/03/23 06:32:48;;;;;;;16.10;5.97;;;4.60;99.90;;;;;;4957512;28;20062;-72
2024/03/23 06:35:14;;;;;;;21.95;7.30;;;4.60;99.90;;;;;;4965815;28;20042;-71
2024/03/23 06:37:40;;;;;;;25.55;8.27;;;4.70;99.90;;;;;;4973967;28;20042;-71
2024/03/23 06:40:09;;;;;;;12.50;5.38;;;4.70;99.90;;;;;;4949630;28;20670;-73
2024/03/23 06:42:36;;;;;;;19.23;5.18;;;4.70;99.90;;;;;;4958827;28;20035;-73
2024/03/23 06:45:04;;;;;;;15.43;5.72;;;4.70;99.90;;;;;;4950752;28;20039;-73
2024/03/23 06:47:30;;;;;;;23.48;8.05;;;4.70;99.90;;;;;;4938217;28;20042;-73
2024/03/23 06:49:57;;;;;;;18.63;5.95;;;4.70;99.90;;;;;;4947633;28;20755;-74
2024/03/23 06:52:23;;;;;;;13.50;5.45;;;4.70;99.90;;;;;;4938644;28;20030;-72
2024/03/23 06:54:49;;;;;;;18.60;5.05;;;4.70;99.90;;;;;;4939472;28;20047;-72
2024/03/23 06:57:15;;;;;;;31.58;6.50;;;4.60;99.90;;;;;;4937698;28;20038;-73
2024/03/23 06:59:43;;;;;;;18.77;6.28;;;4.70;99.90;;;;;;4972943;28;20054;-72
2024/03/23 07:02:09;;;;;;;13.80;4.65;;;4.80;99.90;;;;;;4952472;28;20725;-72
2024/03/23 07:04:36;;;;;;;13.30;5.30;;;4.70;99.90;;;;;;4955314;28;20548;-74
2024/03/23 07:07:02;;;;;;;18.38;5.53;;;4.70;99.90;;;;;;4935961;28;20042;-71
2024/03/23 07:09:29;;;;;;;21.65;5.93;;;4.60;99.90;;;;;;4945041;28;20049;-74
2024/03/23 07:11:56;;;;;;;22.60;6.03;;;4.70;99.90;;;;;;4946920;28;20053;-71
2024/03/23 07:14:23;;;;;;;18.40;6.60;;;4.70;99.90;;;;;;4971603;28;20046;-73
2024/03/23 07:16:50;;;;;;;16.48;5.43;;;4.70;99.90;;;;;;4955332;28;20058;-72
2024/03/23 07:19:16;;;;;;;15.48;6.20;;;4.70;99.90;;;;;;4951664;28;20530;-73
2024/03/23 07:21:43;;;;;;;20.92;6.68;;;4.80;99.90;;;;;;4956165;28;20058;-73
2024/03/23 07:24:09;;;;;;;21.00;6.95;;;4.80;99.90;;;;;;4969415;28;20046;-72
2024/03/23 07:26:35;;;;;;;22.30;7.53;;;4.80;99.90;;;;;;4974535;28;20105;-71
2024/03/23 07:29:02;;;;;;;23.95;7.93;;;4.80;99.90;;;;;;4946754;28;20742;-71
2024/03/23 07:31:28;;;;;;;21.25;7.72;;;4.80;99.90;;;;;;4986535;28;20688;-72
2024/03/23 07:33:54;;;;;;;21.67;8.40;;;4.90;99.90;;;;;;4971655;28;20604;-71
2024/03/23 07:36:21;;;;;;;29.67;9.15;;;4.90;99.90;;;;;;4969566;28;20047;-72
2024/03/23 07:38:47;;;;;;;36.67;10.90;;;4.90;99.90;;;;;;4957701;28;20058;-70
2024/03/23 07:41:20;;;;;;;34.95;11.38;;;4.90;99.90;;;;;;4949796;28;22492;-71
2024/03/23 07:43:47;;;;;;;28.90;11.88;;;5.00;99.90;;;;;;4971548;28;20057;-71
2024/03/23 07:46:15;;;;;;;36.67;14.73;;;5.10;99.90;;;;;;4952081;28;20884;-72
2024/03/23 07:48:44;;;;;;;30.65;15.00;;;5.00;99.90;;;;;;4963761;28;20061;-72
2024/03/23 07:51:22;;;;;;;38.58;15.80;;;5.00;99.90;;;;;;4952136;28;20077;-72
2024/03/23 07:53:48;;;;;;;48.33;17.55;;;5.10;99.90;;;;;;4954407;28;20053;-72
2024/03/23 07:56:15;;;;;;;34.85;16.60;;;5.20;99.90;;;;;;4967887;28;20581;-70
2024/03/23 07:58:42;;;;;;;33.33;16.50;;;5.20;99.90;;;;;;4942022;28;20080;-71
2024/03/23 08:01:10;;;;;;;59.63;18.23;;;5.30;99.90;;;;;;4953220;28;20058;-71
2024/03/23 08:03:38;;;;;;;46.10;21.05;;;5.30;99.90;;;;;;4968722;28;20046;-72
2024/03/23 08:06:25;;;;;;;48.85;22.00;;;5.40;99.90;;;;;;4949153;28;20689;-72
2024/03/23 08:08:59;;;;;;;54.17;19.85;;;5.40;99.90;;;;;;4956495;28;20050;-72
2024/03/23 08:11:30;;;;;;;42.85;21.58;;;5.40;99.90;;;;;;4953686;28;20084;-71
2024/03/23 08:13:57;;;;;;;39.28;18.45;;;5.30;99.90;;;;;;4955206;28;20133;-72
2024/03/23 08:16:24;;;;;;;50.92;23.02;;;5.40;99.90;;;;;;4954755;28;20053;-71
2024/03/23 08:18:55;;;;;;;47.35;22.35;;;5.50;99.90;;;;;;4973840;28;20128;-70
2024/03/23 08:21:22;;;;;;;42.97;20.17;;;5.60;99.90;;;;;;4967988;28;20053;-71
2024/03/23 08:23:48;;;;;;;60.88;23.90;;;5.60;99.90;;;;;;4956429;28;20053;-71
2024/03/23 08:26:17;;;;;;;47.40;21.95;;;5.60;99.90;;;;;;4950849;28;20038;-71
2024/03/23 08:28:43;;;;;;;52.17;23.75;;;5.60;99.90;;;;;;4951887;28;20054;-71
2024/03/23 08:31:11;;;;;;;53.33;25.23;;;5.50;99.90;;;;;;4947603;28;20046;-71
2024/03/23 08:33:39;;;;;;;55.08;26.17;;;5.40;99.90;;;;;;4968104;28;20833;-72
2024/03/23 08:36:07;;;;;;;51.30;24.92;;;5.50;99.90;;;;;;4948099;28;20038;-71
2024/03/23 08:38:33;;;;;;;57.00;25.35;;;5.70;99.90;;;;;;4937806;28;20112;-72
2024/03/23 08:40:59;;;;;;;50.78;27.02;;;5.70;99.90;;;;;;4938717;28;20042;-70
2024/03/23 08:43:27;;;;;;;58.63;28.52;;;5.80;99.90;;;;;;4937577;28;20054;-70
2024/03/23 08:45:53;;;;;;;49.47;26.38;;;6.00;99.90;;;;;;4936468;28;20057;-71
2024/03/23 08:48:23;;;;;;;47.60;26.23;;;6.10;99.90;;;;;;4951693;28;20361;-69
2024/03/23 08:51:07;;;;;;;57.00;27.38;;;6.30;99.90;;;;;;4941289;28;20051;-70
2024/03/23 08:53:35;;;;;;;47.28;29.30;;;6.20;99.90;;;;;;4952134;28;20133;-71
2024/03/23 08:56:03;;;;;;;53.33;29.17;;;6.20;99.90;;;;;;4958137;28;20049;-70
2024/03/23 08:58:31;;;;;;;43.72;26.10;;;6.30;99.90;;;;;;4973897;28;20486;-71
2024/03/23 09:01:04;;;;;;;54.67;27.55;;;6.40;99.90;;;;;;4973005;28;20058;-69
2024/03/23 09:03:31;;;;;;;49.75;27.20;;;6.50;99.90;;;;;;4957087;28;20129;-70
2024/03/23 09:05:58;;;;;;;40.65;27.52;;;6.40;99.90;;;;;;4963123;28;20050;-72
2024/03/23 09:08:25;;;;;;;49.90;28.17;;;6.30;99.90;;;;;;4952101;28;20064;-71
2024/03/23 09:10:52;;;;;;;45.03;27.40;;;6.30;99.90;;;;;;4953169;28;20201;-71
2024/03/23 09:13:19;;;;;;;39.88;29.15;;;6.20;99.90;;;;;;4960689;28;20060;-71
2024/03/23 09:15:51;;;;;;;38.95;27.83;;;6.20;99.90;;;;;;4971297;28;20500;-70
2024/03/23 09:18:18;;;;;;;56.08;28.60;;;6.30;99.90;;;;;;4955202;28;20062;-70
2024/03/23 09:20:44;;;;;;;57.97;28.83;;;6.30;99.90;;;;;;4972866;28;20050;-70
2024/03/23 09:23:10;;;;;;;48.70;30.27;;;6.30;99.90;;;;;;4948057;28;20041;-70
2024/03/23 09:25:38;;;;;;;61.15;29.92;;;6.30;99.90;;;;;;4953126;28;20045;-71
2024/03/23 09:28:05;;;;;;;53.05;32.10;;;6.50;99.90;;;;;;4954520;28;20084;-68
2024/03/23 09:30:33;;;;;;;47.25;30.23;;;6.70;99.90;;;;;;4971458;28;20042;-71
2024/03/23 09:32:59;;;;;;;42.20;29.17;;;7.00;99.90;;;;;;4954378;28;20515;-71
2024/03/23 09:35:27;;;;;;;40.33;31.00;;;7.00;99.90;;;;;;4964156;28;20046;-70
2024/03/23 09:37:53;;;;;;;33.83;29.92;;;7.00;99.90;;;;;;4935303;28;20053;-70
2024/03/23 09:40:21;;;;;;;39.00;33.38;;;7.00;99.90;;;;;;4968435;28;20049;-71
2024/03/23 09:42:51;;;;;;;31.77;28.55;;;7.20;99.90;;;;;;4967181;28;20062;-70
2024/03/23 09:45:21;;;;;;;41.10;30.77;;;7.20;99.90;;;;;;4950278;28;20047;-71
2024/03/23 09:47:48;;;;;;;31.95;28.48;;;7.40;99.90;;;;;;4956058;28;20477;-70
2024/03/23 09:50:14;;;;;;;33.60;30.02;;;7.40;99.90;;;;;;4946342;28;20094;-70
2024/03/23 09:52:43;;;;;;;35.97;29.27;;;7.60;99.90;;;;;;4967207;28;20039;-70
2024/03/23 09:55:09;;;;;;;33.30;29.25;;;7.70;99.90;;;;;;4948941;28;20054;-70
2024/03/23 09:57:35;;;;;;;35.72;30.13;;;7.60;99.90;;;;;;4974143;28;20050;-70
2024/03/23 10:00:03;;;;;;;36.75;31.13;;;7.40;99.90;;;;;;4940394;28;20061;-67
2024/03/23 10:02:33;;;;;;;32.08;28.95;;;7.10;99.90;;;;;;4952457;28;20063;-71
2024/03/23 10:05:01;;;;;;;31.40;28.17;;;6.90;99.90;;;;;;4949014;28;20049;-71
2024/03/23 10:07:30;;;;;;;30.58;27.30;;;6.70;99.90;;;;;;4952426;28;21120;-68
2024/03/23 10:09:57;;;;;;;33.47;29.33;;;6.60;99.90;;;;;;4935620;28;20673;-71
2024/03/23 10:12:24;;;;;;;48.13;32.78;;;6.70;99.90;;;;;;4947391;28;20101;-71
2024/03/23 10:14:50;;;;;;;40.97;30.48;;;6.70;99.90;;;;;;4971958;28;20742;-70
2024/03/23 10:17:20;;;;;;;41.58;32.72;;;6.80;99.90;;;;;;4973886;28;20050;-70
2024/03/23 10:19:51;;;;;;;34.55;29.27;;;6.90;99.90;;;;;;4939815;28;20066;-70
2024/03/23 10:22:21;;;;;;;42.83;33.22;;;7.50;99.90;;;;;;4947943;28;20665;-71
2024/03/23 10:24:49;;;;;;;35.58;32.13;;;7.80;99.90;;;;;;4969522;28;20058;-70
2024/03/23 10:27:20;;;;;;;37.40;34.03;;;8.20;99.90;;;;;;4964064;28;20042;-71
2024/03/23 10:29:47;;;;;;;38.83;34.97;;;8.50;99.90;;;;;;4972071;28;20049;-70
2024/03/23 10:32:15;;;;;;;37.88;31.88;;;8.50;99.90;;;;;;4959708;28;20046;-71
2024/03/23 10:34:41;;;;;;;34.45;30.33;;;8.80;99.90;;;;;;4935350;28;20046;-70
2024/03/23 10:37:08;;;;;;;35.00;31.80;;;8.80;99.90;;;;;;4962814;28;20034;-68
2024/03/23 10:39:41;;;;;;;39.13;35.25;;;8.40;99.90;;;;;;4966959;28;20046;-70
2024/03/23 10:42:10;;;;;;;32.22;29.83;;;8.60;99.90;;;;;;4932909;28;20047;-68
2024/03/23 10:44:36;;;;;;;32.90;29.80;;;8.80;99.90;;;;;;4968342;28;20527;-69
2024/03/23 10:47:03;;;;;;;32.63;29.63;;;9.10;99.90;;;;;;4934105;28;20053;-70
2024/03/23 10:49:34;;;;;;;33.08;29.70;;;8.80;99.90;;;;;;4955334;28;20085;-71
2024/03/23 10:52:04;;;;;;;30.13;27.55;;;9.00;99.90;;;;;;4939652;28;20046;-70
2024/03/23 10:54:32;;;;;;;38.83;34.88;;;9.00;99.90;;;;;;4968771;28;20125;-70
2024/03/23 10:57:20;;;;;;;34.30;31.40;;;8.80;99.90;;;;;;4957436;28;20043;-70
2024/03/23 10:59:46;;;;;;;32.08;29.35;;;9.00;99.90;;;;;;4958329;28;20054;-68
2024/03/23 11:02:20;;;;;;;32.22;29.10;;;8.80;99.90;;;;;;4944948;28;20030;-69
2024/03/23 11:04:48;;;;;;;28.65;26.40;;;8.00;99.90;;;;;;4971491;28;20050;-71
2024/03/23 11:07:26;;;;;;;21.75;20.23;;;6.70;99.90;;;;;;4947358;28;20073;-74
2024/03/23 11:09:56;;;;;;;12.38;11.15;;;4.90;99.90;;;;;;4965478;28;20046;-71
2024/03/23 11:12:23;;;;;;;11.00;10.23;;;3.90;99.90;;;;;;4965136;28;20042;-75
2024/03/23 11:15:20;;;;;;;11.05;9.40;;;3.30;99.90;;;;;;4972738;28;20038;-75
2024/03/23 11:18:07;;;;;;;8.82;8.30;;;3.00;99.90;;;;;;4953260;28;20101;-76
2024/03/23 11:20:35;;;;;;;13.98;9.32;;;2.90;99.90;;;;;;4923437;28;20334;-80
2024/03/23 11:23:02;;;;;;;12.25;11.20;;;3.00;99.90;;;;;;4944112;28;20104;-77
2024/03/23 11:25:29;;;;;;;15.68;14.23;;;3.20;99.90;;;;;;4955331;28;20049;-77
2024/03/23 11:28:10;;;;;;;13.32;12.52;;;3.30;99.90;;;;;;4955202;28;20073;-76
2024/03/23 11:30:38;;;;;;;13.73;12.88;;;3.60;99.90;;;;;;4962644;28;20074;-76
2024/03/23 11:33:04;;;;;;;13.52;12.63;;;3.90;99.90;;;;;;4959746;28;20311;-74
2024/03/23 11:35:37;;;;;;;19.50;17.88;;;4.20;99.90;;;;;;4953039;28;21048;-75
2024/03/23 11:38:20;;;;;;;19.38;18.15;;;4.50;99.90;;;;;;4957265;28;20081;-73
2024/03/23 11:40:50;;;;;;;19.13;17.90;;;4.70;99.90;;;;;;4944006;28;20693;-73
2024/03/23 11:43:18;;;;;;;17.88;16.40;;;4.80;99.90;;;;;;4954691;28;20063;-72
2024/03/23 11:45:52;;;;;;;15.40;14.30;;;4.70;99.90;;;;;;4956325;28;20542;-73
2024/03/23 11:48:20;;;;;;;14.73;13.75;;;4.40;99.90;;;;;;4950253;28;20066;-73
2024/03/23 11:50:48;;;;;;;17.85;16.55;;;4.20;99.90;;;;;;4954041;28;20053;-73
2024/03/23 11:53:16;;;;;;;18.33;17.05;;;4.30;99.90;;;;;;4962196;28;20058;-73
2024/03/23 11:55:51;;;;;;;16.45;15.43;;;4.80;99.90;;;;;;4966577;28;20108;-72
2024/03/23 11:58:19;;;;;;;15.77;14.68;;;5.40;99.90;;;;;;4964185;28;20062;-72
2024/03/23 12:00:52;;;;;;;19.00;17.67;;;5.80;99.90;;;;;;4955373;28;20057;-73
2024/03/23 12:03:21;;;;;;;17.23;16.13;;;6.10;99.90;;;;;;4950487;28;20061;-70
2024/03/23 12:05:50;;;;;;;20.08;18.58;;;6.50;99.90;;;;;;4967980;28;20038;-72
2024/03/23 12:08:21;;;;;;;19.50;17.75;;;6.90;99.90;;;;;;4950769;28;20061;-71
2024/03/23 12:10:52;;;;;;;23.58;21.50;;;7.30;99.90;;;;;;4970441;28;20054;-72
2024/03/23 12:13:20;;;;;;;23.02;21.20;;;7.20;99.90;;;;;;4951400;28;20066;-72
2024/03/23 12:15:49;;;;;;;23.55;21.65;;;7.50;99.90;;;;;;4952622;28;20054;-70
2024/03/23 12:18:15;;;;;;;29.05;26.42;;;7.90;99.90;;;;;;4916159;28;20059;-72
2024/03/23 12:20:41;;;;;;;28.25;25.27;;;8.20;99.90;;;;;;4966494;28;20061;-72
2024/03/23 12:23:12;;;;;;;30.65;28.05;;;8.20;99.90;;;;;;4937287;28;20047;-72
2024/03/23 12:25:41;;;;;;;30.52;27.95;;;7.90;99.90;;;;;;4941386;28;20141;-71
2024/03/23 12:28:07;;;;;;;32.35;29.55;;;7.60;99.90;;;;;;4939448;28;20051;-70
2024/03/23 12:30:35;;;;;;;29.42;26.88;;;7.20;99.90;;;;;;4956216;28;20049;-74
2024/03/23 12:33:01;;;;;;;29.70;26.55;;;6.60;99.90;;;;;;4957674;28;20046;-72
2024/03/23 12:35:27;;;;;;;27.27;23.88;;;6.00;99.90;;;;;;4965276;28;20128;-73
2024/03/23 12:37:53;;;;;;;25.55;23.42;;;5.80;99.90;;;;;;4971206;28;20046;-73
2024/03/23 12:40:20;;;;;;;27.30;24.58;;;5.60;99.90;;;;;;4951165;28;20098;-73
2024/03/23 12:42:46;;;;;;;27.70;25.35;;;5.50;99.90;;;;;;4957942;28;20123;-76
2024/03/23 12:45:12;;;;;;;27.50;25.15;;;5.30;99.90;;;;;;4959231;28;20050;-76